sensor_id;sensor_type;location;lat;lon;timestamp;temperature;humidity
74809;DHT22;63338;39.544;2.596;2023-02-15T00:01:20;12.60;77.30
74809;DHT22;63338;39.544;2.596;2023-02-15T00:03:50;12.60;77.50
74809;DHT22;63338;39.544;2.596;2023-02-15T00:06:17;12.70;76.20
74809;DHT22;63338;39.544;2.596;2023-02-15T00:08:43;12.60;77.50
74809;DHT22;63338;39.544;2.596;2023-02-15T00:11:11;12.60;77.70
74809;DHT22;63338;39.544;2.596;2023-02-15T00:13:38;12.60;77.70
74809;DHT22;63338;39.544;2.596;2023-02-15T00:16:09;12.50;77.80
74809;DHT22;63338;39.544;2.596;2023-02-15T00:18:36;12.30;78.00
74809;DHT22;63338;39.544;2.596;2023-02-15T00:21:05;12.40;77.80
74809;DHT22;63338;39.544;2.596;2023-02-15T00:23:31;12.40;78.00
74809;DHT22;63338;39.544;2.596;2023-02-15T00:26:08;12.30;77.80
74809;DHT22;63338;39.544;2.596;2023-02-15T00:28:35;12.30;77.90
74809;DHT22;63338;39.544;2.596;2023-02-15T00:31:09;12.20;77.90
74809;DHT22;63338;39.544;2.596;2023-02-15T00:33:37;12.30;78.10
74809;DHT22;63338;39.544;2.596;2023-02-15T00:36:06;12.20;77.90
74809;DHT22;63338;39.544;2.596;2023-02-15T00:38:33;12.40;77.80
74809;DHT22;63338;39.544;2.596;2023-02-15T00:41:01;12.40;77.50
74809;DHT22;63338;39.544;2.596;2023-02-15T00:43:29;12.40;77.70
74809;DHT22;63338;39.544;2.596;2023-02-15T00:45:55;12.30;77.60
74809;DHT22;63338;39.544;2.596;2023-02-15T00:48:22;12.30;77.30
74809;DHT22;63338;39.544;2.596;2023-02-15T00:50:58;12.50;77.30
74809;DHT22;63338;39.544;2.596;2023-02-15T00:53:26;12.50;77.20
74809;DHT22;63338;39.544;2.596;2023-02-15T00:55:54;12.40;77.20
74809;DHT22;63338;39.544;2.596;2023-02-15T00:58:20;12.30;77.30
74809;DHT22;63338;39.544;2.596;2023-02-15T01:00:47;12.30;77.40
74809;DHT22;63338;39.544;2.596;2023-02-15T01:03:15;12.30;77.30
74809;DHT22;63338;39.544;2.596;2023-02-15T01:05:41;12.20;77.30
74809;DHT22;63338;39.544;2.596;2023-02-15T01:08:08;12.20;77.60
74809;DHT22;63338;39.544;2.596;2023-02-15T01:10:35;12.20;77.60
74809;DHT22;63338;39.544;2.596;2023-02-15T01:13:02;12.20;77.60
74809;DHT22;63338;39.544;2.596;2023-02-15T01:15:28;12.10;77.60
74809;DHT22;63338;39.544;2.596;2023-02-15T01:17:55;12.10;77.90
74809;DHT22;63338;39.544;2.596;2023-02-15T01:20:25;12.10;78.10
74809;DHT22;63338;39.544;2.596;2023-02-15T01:22:52;12.20;78.00
74809;DHT22;63338;39.544;2.596;2023-02-15T01:25:20;12.00;77.90
74809;DHT22;63338;39.544;2.596;2023-02-15T01:27:49;12.00;78.20
74809;DHT22;63338;39.544;2.596;2023-02-15T01:30:16;11.90;78.30
74809;DHT22;63338;39.544;2.596;2023-02-15T01:32:43;11.90;78.40
74809;DHT22;63338;39.544;2.596;2023-02-15T01:35:10;12.00;78.40
74809;DHT22;63338;39.544;2.596;2023-02-15T01:37:36;11.90;78.50
74809;DHT22;63338;39.544;2.596;2023-02-15T01:40:04;11.90;78.70
74809;DHT22;63338;39.544;2.596;2023-02-15T01:42:32;11.90;78.60
74809;DHT22;63338;39.544;2.596;2023-02-15T01:45:32;11.90;78.70
74809;DHT22;63338;39.544;2.596;2023-02-15T01:48:19;11.90;78.90
74809;DHT22;63338;39.544;2.596;2023-02-15T01:50:53;11.80;78.70
74809;DHT22;63338;39.544;2.596;2023-02-15T01:53:42;11.60;78.90
74809;DHT22;63338;39.544;2.596;2023-02-15T01:56:13;11.70;79.00
74809;DHT22;63338;39.544;2.596;2023-02-15T01:58:41;11.60;79.30
74809;DHT22;63338;39.544;2.596;2023-02-15T02:01:08;11.50;79.50
74809;DHT22;63338;39.544;2.596;2023-02-15T02:03:48;11.50;79.60
74809;DHT22;63338;39.544;2.596;2023-02-15T02:06:16;11.50;79.70
74809;DHT22;63338;39.544;2.596;2023-02-15T02:08:43;11.50;79.70
74809;DHT22;63338;39.544;2.596;2023-02-15T02:11:15;11.50;79.80
74809;DHT22;63338;39.544;2.596;2023-02-15T02:13:43;11.50;79.70
74809;DHT22;63338;39.544;2.596;2023-02-15T02:16:37;11.50;79.60
74809;DHT22;63338;39.544;2.596;2023-02-15T02:25:20;11.50;79.70
74809;DHT22;63338;39.544;2.596;2023-02-15T02:33:11;11.50;79.50
74809;DHT22;63338;39.544;2.596;2023-02-15T02:36:08;11.40;79.50
74809;DHT22;63338;39.544;2.596;2023-02-15T02:42:01;11.40;79.50
74809;DHT22;63338;39.544;2.596;2023-02-15T02:44:48;11.40;79.40
74809;DHT22;63338;39.544;2.596;2023-02-15T02:47:30;11.20;79.60
74809;DHT22;63338;39.544;2.596;2023-02-15T02:50:01;11.30;79.80
74809;DHT22;63338;39.544;2.596;2023-02-15T02:52:45;11.30;79.60
74809;DHT22;63338;39.544;2.596;2023-02-15T03:00:43;11.10;79.90
74809;DHT22;63338;39.544;2.596;2023-02-15T03:03:14;11.10;80.20
74809;DHT22;63338;39.544;2.596;2023-02-15T03:05:45;11.10;80.10
74809;DHT22;63338;39.544;2.596;2023-02-15T03:08:16;11.00;80.30
74809;DHT22;63338;39.544;2.596;2023-02-15T03:10:54;11.00;80.40
74809;DHT22;63338;39.544;2.596;2023-02-15T03:13:22;11.00;80.60
74809;DHT22;63338;39.544;2.596;2023-02-15T03:15:49;10.90;80.60
74809;DHT22;63338;39.544;2.596;2023-02-15T03:18:39;10.80;80.50
74809;DHT22;63338;39.544;2.596;2023-02-15T03:21:09;10.80;80.70
74809;DHT22;63338;39.544;2.596;2023-02-15T03:23:59;10.70;80.70
74809;DHT22;63338;39.544;2.596;2023-02-15T03:26:29;10.70;80.70
74809;DHT22;63338;39.544;2.596;2023-02-15T03:28:57;10.70;80.90
74809;DHT22;63338;39.544;2.596;2023-02-15T03:31:26;10.70;80.90
74809;DHT22;63338;39.544;2.596;2023-02-15T03:34:06;10.70;81.00
74809;DHT22;63338;39.544;2.596;2023-02-15T03:39:45;10.70;81.00
74809;DHT22;63338;39.544;2.596;2023-02-15T03:42:25;10.70;81.10
74809;DHT22;63338;39.544;2.596;2023-02-15T03:45:05;10.60;81.20
74809;DHT22;63338;39.544;2.596;2023-02-15T03:47:40;10.60;81.10
74809;DHT22;63338;39.544;2.596;2023-02-15T03:50:15;10.60;81.40
74809;DHT22;63338;39.544;2.596;2023-02-15T03:53:03;10.60;81.40
74809;DHT22;63338;39.544;2.596;2023-02-15T03:55:30;10.50;81.40
74809;DHT22;63338;39.544;2.596;2023-02-15T03:57:56;10.50;81.60
74809;DHT22;63338;39.544;2.596;2023-02-15T04:00:55;10.40;81.70
74809;DHT22;63338;39.544;2.596;2023-02-15T04:03:52;10.40;81.50
74809;DHT22;63338;39.544;2.596;2023-02-15T04:06:20;10.40;81.70
74809;DHT22;63338;39.544;2.596;2023-02-15T04:08:46;10.30;81.80
74809;DHT22;63338;39.544;2.596;2023-02-15T04:11:30;10.50;82.00
74809;DHT22;63338;39.544;2.596;2023-02-15T04:13:57;10.40;81.80
74809;DHT22;63338;39.544;2.596;2023-02-15T04:16:24;10.40;81.90
74809;DHT22;63338;39.544;2.596;2023-02-15T04:18:50;10.40;81.90
74809;DHT22;63338;39.544;2.596;2023-02-15T04:21:35;10.40;81.70
74809;DHT22;63338;39.544;2.596;2023-02-15T04:24:19;10.40;81.60
74809;DHT22;63338;39.544;2.596;2023-02-15T04:27:05;10.40;81.60
74809;DHT22;63338;39.544;2.596;2023-02-15T04:29:32;10.40;81.80
74809;DHT22;63338;39.544;2.596;2023-02-15T04:32:01;10.30;81.90
74809;DHT22;63338;39.544;2.596;2023-02-15T04:34:27;10.30;81.90
74809;DHT22;63338;39.544;2.596;2023-02-15T04:36:53;10.30;82.00
74809;DHT22;63338;39.544;2.596;2023-02-15T04:39:19;10.40;82.20
74809;DHT22;63338;39.544;2.596;2023-02-15T04:41:46;10.30;82.20
74809;DHT22;63338;39.544;2.596;2023-02-15T04:44:13;10.30;82.00
74809;DHT22;63338;39.544;2.596;2023-02-15T04:46:39;10.30;82.00
74809;DHT22;63338;39.544;2.596;2023-02-15T04:49:05;10.40;82.00
74809;DHT22;63338;39.544;2.596;2023-02-15T04:51:34;10.30;81.90
74809;DHT22;63338;39.544;2.596;2023-02-15T04:54:00;10.30;81.80
74809;DHT22;63338;39.544;2.596;2023-02-15T04:56:30;10.20;82.10
74809;DHT22;63338;39.544;2.596;2023-02-15T04:58:56;10.20;82.30
74809;DHT22;63338;39.544;2.596;2023-02-15T05:01:22;10.30;82.20
74809;DHT22;63338;39.544;2.596;2023-02-15T05:03:48;10.20;82.20
74809;DHT22;63338;39.544;2.596;2023-02-15T05:06:14;10.20;82.40
74809;DHT22;63338;39.544;2.596;2023-02-15T05:08:40;10.10;82.40
74809;DHT22;63338;39.544;2.596;2023-02-15T05:11:10;10.10;82.40
74809;DHT22;63338;39.544;2.596;2023-02-15T05:13:36;10.10;82.40
74809;DHT22;63338;39.544;2.596;2023-02-15T05:16:02;10.10;82.90
74809;DHT22;63338;39.544;2.596;2023-02-15T05:18:27;10.10;82.50
74809;DHT22;63338;39.544;2.596;2023-02-15T05:20:54;10.00;82.50
74809;DHT22;63338;39.544;2.596;2023-02-15T05:23:19;10.00;82.90
74809;DHT22;63338;39.544;2.596;2023-02-15T05:25:49;10.00;83.00
74809;DHT22;63338;39.544;2.596;2023-02-15T05:28:35;10.10;82.80
74809;DHT22;63338;39.544;2.596;2023-02-15T05:31:05;10.00;82.80
74809;DHT22;63338;39.544;2.596;2023-02-15T05:33:33;10.10;82.80
74809;DHT22;63338;39.544;2.596;2023-02-15T05:36:00;10.10;82.70
74809;DHT22;63338;39.544;2.596;2023-02-15T05:38:26;10.10;82.70
74809;DHT22;63338;39.544;2.596;2023-02-15T05:40:52;10.10;82.50
74809;DHT22;63338;39.544;2.596;2023-02-15T05:43:18;10.20;82.60
74809;DHT22;63338;39.544;2.596;2023-02-15T05:45:54;10.20;82.60
74809;DHT22;63338;39.544;2.596;2023-02-15T05:48:22;10.20;82.40
74809;DHT22;63338;39.544;2.596;2023-02-15T05:51:12;10.20;82.40
74809;DHT22;63338;39.544;2.596;2023-02-15T05:53:42;10.30;82.10
74809;DHT22;63338;39.544;2.596;2023-02-15T05:56:09;10.40;81.80
74809;DHT22;63338;39.544;2.596;2023-02-15T05:58:38;10.40;81.60
74809;DHT22;63338;39.544;2.596;2023-02-15T06:01:12;10.50;81.30
74809;DHT22;63338;39.544;2.596;2023-02-15T06:03:39;10.60;81.30
74809;DHT22;63338;39.544;2.596;2023-02-15T06:06:05;10.60;81.10
74809;DHT22;63338;39.544;2.596;2023-02-15T06:08:33;10.70;80.90
74809;DHT22;63338;39.544;2.596;2023-02-15T06:11:00;10.70;80.80
74809;DHT22;63338;39.544;2.596;2023-02-15T06:13:26;10.70;80.50
74809;DHT22;63338;39.544;2.596;2023-02-15T06:15:52;10.70;80.20
74809;DHT22;63338;39.544;2.596;2023-02-15T06:18:18;10.70;80.10
74809;DHT22;63338;39.544;2.596;2023-02-15T06:20:48;10.80;80.00
74809;DHT22;63338;39.544;2.596;2023-02-15T06:23:15;10.90;79.80
74809;DHT22;63338;39.544;2.596;2023-02-15T06:25:41;10.90;79.60
74809;DHT22;63338;39.544;2.596;2023-02-15T06:28:07;10.90;79.80
74809;DHT22;63338;39.544;2.596;2023-02-15T06:30:33;10.90;79.80
74809;DHT22;63338;39.544;2.596;2023-02-15T06:32:59;10.90;79.70
74809;DHT22;63338;39.544;2.596;2023-02-15T06:35:25;11.00;79.70
74809;DHT22;63338;39.544;2.596;2023-02-15T06:37:51;11.00;79.40
74809;DHT22;63338;39.544;2.596;2023-02-15T06:40:17;11.00;79.40
74809;DHT22;63338;39.544;2.596;2023-02-15T06:42:43;10.90;79.70
74809;DHT22;63338;39.544;2.596;2023-02-15T06:45:10;11.00;79.80
74809;DHT22;63338;39.544;2.596;2023-02-15T06:47:36;10.90;79.50
74809;DHT22;63338;39.544;2.596;2023-02-15T06:50:04;10.90;79.50
74809;DHT22;63338;39.544;2.596;2023-02-15T06:52:31;11.00;79.20
74809;DHT22;63338;39.544;2.596;2023-02-15T06:54:58;11.10;79.00
74809;DHT22;63338;39.544;2.596;2023-02-15T06:57:24;11.10;78.90
74809;DHT22;63338;39.544;2.596;2023-02-15T06:59:50;11.10;79.00
74809;DHT22;63338;39.544;2.596;2023-02-15T07:02:16;11.10;78.70
74809;DHT22;63338;39.544;2.596;2023-02-15T07:04:45;11.20;78.60
74809;DHT22;63338;39.544;2.596;2023-02-15T07:07:12;11.20;78.40
74809;DHT22;63338;39.544;2.596;2023-02-15T07:09:39;11.20;78.50
74809;DHT22;63338;39.544;2.596;2023-02-15T07:12:05;11.20;78.20
74809;DHT22;63338;39.544;2.596;2023-02-15T07:14:50;11.30;77.90
74809;DHT22;63338;39.544;2.596;2023-02-15T07:17:17;11.30;78.00
74809;DHT22;63338;39.544;2.596;2023-02-15T07:19:43;11.40;78.00
74809;DHT22;63338;39.544;2.596;2023-02-15T07:22:09;11.50;77.50
74809;DHT22;63338;39.544;2.596;2023-02-15T07:24:35;11.50;77.50
74809;DHT22;63338;39.544;2.596;2023-02-15T07:27:01;11.50;77.60
74809;DHT22;63338;39.544;2.596;2023-02-15T07:29:28;11.60;77.30
74809;DHT22;63338;39.544;2.596;2023-02-15T07:31:54;11.50;77.10
74809;DHT22;63338;39.544;2.596;2023-02-15T07:34:21;11.60;77.00
74809;DHT22;63338;39.544;2.596;2023-02-15T07:36:47;11.60;77.00
74809;DHT22;63338;39.544;2.596;2023-02-15T07:39:13;11.60;76.80
74809;DHT22;63338;39.544;2.596;2023-02-15T07:41:39;11.60;76.70
74809;DHT22;63338;39.544;2.596;2023-02-15T07:44:05;11.60;76.60
74809;DHT22;63338;39.544;2.596;2023-02-15T07:46:34;11.80;76.50
74809;DHT22;63338;39.544;2.596;2023-02-15T07:49:00;11.90;76.30
74809;DHT22;63338;39.544;2.596;2023-02-15T07:51:26;11.90;76.10
74809;DHT22;63338;39.544;2.596;2023-02-15T07:53:52;12.00;76.00
74809;DHT22;63338;39.544;2.596;2023-02-15T07:56:18;12.10;75.80
74809;DHT22;63338;39.544;2.596;2023-02-15T07:58:44;12.10;75.70
74809;DHT22;63338;39.544;2.596;2023-02-15T08:01:24;12.40;75.20
74809;DHT22;63338;39.544;2.596;2023-02-15T08:03:51;12.30;75.00
74809;DHT22;63338;39.544;2.596;2023-02-15T08:06:18;12.60;74.90
74809;DHT22;63338;39.544;2.596;2023-02-15T08:08:44;12.80;73.40
74809;DHT22;63338;39.544;2.596;2023-02-15T08:11:19;12.80;72.90
74809;DHT22;63338;39.544;2.596;2023-02-15T08:14:08;13.00;72.70
74809;DHT22;63338;39.544;2.596;2023-02-15T08:21:37;13.50;71.50
74809;DHT22;63338;39.544;2.596;2023-02-15T08:24:05;13.70;70.80
74809;DHT22;63338;39.544;2.596;2023-02-15T08:26:35;13.90;70.30
74809;DHT22;63338;39.544;2.596;2023-02-15T08:29:36;14.10;70.10
74809;DHT22;63338;39.544;2.596;2023-02-15T08:32:08;14.20;70.00
74809;DHT22;63338;39.544;2.596;2023-02-15T08:34:38;14.50;69.60
74809;DHT22;63338;39.544;2.596;2023-02-15T08:37:04;14.70;68.90
74809;DHT22;63338;39.544;2.596;2023-02-15T08:39:34;14.80;68.90
74809;DHT22;63338;39.544;2.596;2023-02-15T08:42:00;15.00;68.60
74809;DHT22;63338;39.544;2.596;2023-02-15T08:44:29;15.30;68.30
74809;DHT22;63338;39.544;2.596;2023-02-15T08:46:55;15.60;66.50
74809;DHT22;63338;39.544;2.596;2023-02-15T08:49:30;16.30;65.30
74809;DHT22;63338;39.544;2.596;2023-02-15T08:51:56;16.90;63.80
74809;DHT22;63338;39.544;2.596;2023-02-15T08:54:22;17.10;62.80
74809;DHT22;63338;39.544;2.596;2023-02-15T08:56:48;17.20;62.30
74809;DHT22;63338;39.544;2.596;2023-02-15T08:59:17;17.30;62.80
74809;DHT22;63338;39.544;2.596;2023-02-15T09:01:44;17.30;62.40
74809;DHT22;63338;39.544;2.596;2023-02-15T09:04:11;17.30;62.70
74809;DHT22;63338;39.544;2.596;2023-02-15T09:06:40;17.30;62.50
74809;DHT22;63338;39.544;2.596;2023-02-15T09:09:12;17.30;62.30
74809;DHT22;63338;39.544;2.596;2023-02-15T09:11:41;17.20;62.80
74809;DHT22;63338;39.544;2.596;2023-02-15T09:14:18;17.10;63.00
74809;DHT22;63338;39.544;2.596;2023-02-15T09:16:47;17.20;63.20
74809;DHT22;63338;39.544;2.596;2023-02-15T09:19:16;17.40;62.90
74809;DHT22;63338;39.544;2.596;2023-02-15T09:21:43;17.60;62.50
74809;DHT22;63338;39.544;2.596;2023-02-15T09:24:11;18.10;62.20
74809;DHT22;63338;39.544;2.596;2023-02-15T09:26:40;18.60;60.30
74809;DHT22;63338;39.544;2.596;2023-02-15T09:29:10;19.10;59.50
74809;DHT22;63338;39.544;2.596;2023-02-15T09:31:48;19.70;58.90
74809;DHT22;63338;39.544;2.596;2023-02-15T09:34:17;20.30;57.50
74809;DHT22;63338;39.544;2.596;2023-02-15T09:36:44;20.70;57.10
74809;DHT22;63338;39.544;2.596;2023-02-15T09:58:34;25.10;48.70
74809;DHT22;63338;39.544;2.596;2023-02-15T10:20:45;26.10;47.20
74809;DHT22;63338;39.544;2.596;2023-02-15T10:26:00;25.80;48.00
74809;DHT22;63338;39.544;2.596;2023-02-15T10:34:22;25.30;47.60
74809;DHT22;63338;39.544;2.596;2023-02-15T10:39:51;24.70;48.50
74809;DHT22;63338;39.544;2.596;2023-02-15T10:50:57;23.30;51.00
74809;DHT22;63338;39.544;2.596;2023-02-15T10:53:36;23.10;50.10
74809;DHT22;63338;39.544;2.596;2023-02-15T10:56:20;23.10;50.70
74809;DHT22;63338;39.544;2.596;2023-02-15T10:59:02;23.30;50.20
74809;DHT22;63338;39.544;2.596;2023-02-15T11:01:35;23.80;49.20
74809;DHT22;63338;39.544;2.596;2023-02-15T11:04:15;24.30;48.30
74809;DHT22;63338;39.544;2.596;2023-02-15T11:06:52;24.60;48.10
74809;DHT22;63338;39.544;2.596;2023-02-15T11:09:22;25.10;46.70
74809;DHT22;63338;39.544;2.596;2023-02-15T11:11:52;25.40;46.80
74809;DHT22;63338;39.544;2.596;2023-02-15T11:15:24;25.80;46.70
74809;DHT22;63338;39.544;2.596;2023-02-15T11:17:37;26.20;45.70
74809;DHT22;63338;39.544;2.596;2023-02-15T11:22:35;26.60;44.00
74809;DHT22;63338;39.544;2.596;2023-02-15T11:25:14;26.50;44.40
74809;DHT22;63338;39.544;2.596;2023-02-15T11:27:42;26.80;43.80
74809;DHT22;63338;39.544;2.596;2023-02-15T11:30:21;27.20;42.40
74809;DHT22;63338;39.544;2.596;2023-02-15T11:32:50;27.50;43.20
74809;DHT22;63338;39.544;2.596;2023-02-15T11:35:29;27.70;42.50
74809;DHT22;63338;39.544;2.596;2023-02-15T11:38:21;27.60;42.40
74809;DHT22;63338;39.544;2.596;2023-02-15T11:40:53;27.20;42.60
74809;DHT22;63338;39.544;2.596;2023-02-15T11:46:00;26.40;43.10
74809;DHT22;63338;39.544;2.596;2023-02-15T11:48:26;26.30;43.80
74809;DHT22;63338;39.544;2.596;2023-02-15T11:50:55;26.10;44.00
74809;DHT22;63338;39.544;2.596;2023-02-15T11:53:22;25.80;44.40
74809;DHT22;63338;39.544;2.596;2023-02-15T11:55:54;26.00;44.70
74809;DHT22;63338;39.544;2.596;2023-02-15T11:58:37;26.10;44.20
74809;DHT22;63338;39.544;2.596;2023-02-15T12:01:36;26.20;43.80
74809;DHT22;63338;39.544;2.596;2023-02-15T12:04:32;26.10;43.80
74809;DHT22;63338;39.544;2.596;2023-02-15T12:07:13;26.10;43.70
74809;DHT22;63338;39.544;2.596;2023-02-15T12:09:55;25.90;43.20
74809;DHT22;63338;39.544;2.596;2023-02-15T12:12:27;25.60;44.00
74809;DHT22;63338;39.544;2.596;2023-02-15T12:15:02;25.40;44.30
74809;DHT22;63338;39.544;2.596;2023-02-15T12:17:34;25.10;44.70
74809;DHT22;63338;39.544;2.596;2023-02-15T12:20:20;24.80;45.10
74809;DHT22;63338;39.544;2.596;2023-02-15T12:22:53;24.60;44.70
74809;DHT22;63338;39.544;2.596;2023-02-15T12:25:27;24.50;44.80
74809;DHT22;63338;39.544;2.596;2023-02-15T12:27:55;24.10;45.00
74809;DHT22;63338;39.544;2.596;2023-02-15T12:30:36;24.00;45.50
74809;DHT22;63338;39.544;2.596;2023-02-15T12:33:15;23.70;46.70
74809;DHT22;63338;39.544;2.596;2023-02-15T12:35:43;23.30;49.00
74809;DHT22;63338;39.544;2.596;2023-02-15T12:40:37;22.50;50.80
74809;DHT22;63338;39.544;2.596;2023-02-15T12:43:04;22.50;51.10
74809;DHT22;63338;39.544;2.596;2023-02-15T12:45:36;22.50;51.00
74809;DHT22;63338;39.544;2.596;2023-02-15T12:50:42;22.30;51.10
74809;DHT22;63338;39.544;2.596;2023-02-15T12:55:51;21.90;51.60
74809;DHT22;63338;39.544;2.596;2023-02-15T12:58:29;21.60;52.10
74809;DHT22;63338;39.544;2.596;2023-02-15T13:03:28;21.10;53.20
74809;DHT22;63338;39.544;2.596;2023-02-15T13:05:55;20.60;55.30
74809;DHT22;63338;39.544;2.596;2023-02-15T13:09:06;20.30;56.00
74809;DHT22;63338;39.544;2.596;2023-02-15T13:11:39;19.80;57.70
74809;DHT22;63338;39.544;2.596;2023-02-15T13:14:17;19.60;57.90
74809;DHT22;63338;39.544;2.596;2023-02-15T13:16:44;19.30;58.80
74809;DHT22;63338;39.544;2.596;2023-02-15T13:19:34;19.00;59.90
74809;DHT22;63338;39.544;2.596;2023-02-15T13:22:17;18.90;60.80
74809;DHT22;63338;39.544;2.596;2023-02-15T13:25:04;18.70;60.50
74809;DHT22;63338;39.544;2.596;2023-02-15T13:27:39;18.60;60.50
74809;DHT22;63338;39.544;2.596;2023-02-15T13:30:28;18.70;61.30
74809;DHT22;63338;39.544;2.596;2023-02-15T13:33:14;18.60;61.30
74809;DHT22;63338;39.544;2.596;2023-02-15T13:35:50;18.60;61.80
74809;DHT22;63338;39.544;2.596;2023-02-15T13:38:35;18.60;61.10
74809;DHT22;63338;39.544;2.596;2023-02-15T13:41:16;18.50;61.50
74809;DHT22;63338;39.544;2.596;2023-02-15T13:49:16;18.60;61.70
74809;DHT22;63338;39.544;2.596;2023-02-15T13:52:07;18.60;61.70
74809;DHT22;63338;39.544;2.596;2023-02-15T13:57:20;18.40;62.70
74809;DHT22;63338;39.544;2.596;2023-02-15T14:05:20;18.20;62.60
74809;DHT22;63338;39.544;2.596;2023-02-15T14:27:31;18.40;61.90
74809;DHT22;63338;39.544;2.596;2023-02-15T14:30:20;18.60;61.80
74809;DHT22;63338;39.544;2.596;2023-02-15T14:32:49;18.40;61.80
74809;DHT22;63338;39.544;2.596;2023-02-15T14:35:20;18.00;63.60
74809;DHT22;63338;39.544;2.596;2023-02-15T14:44:07;17.60;65.50
74809;DHT22;63338;39.544;2.596;2023-02-15T14:49:39;17.50;65.40
74809;DHT22;63338;39.544;2.596;2023-02-15T14:52:07;17.60;65.90
74809;DHT22;63338;39.544;2.596;2023-02-15T15:02:25;17.30;66.60
74809;DHT22;63338;39.544;2.596;2023-02-15T15:05:10;17.20;67.10
74809;DHT22;63338;39.544;2.596;2023-02-15T15:07:46;16.90;68.20
74809;DHT22;63338;39.544;2.596;2023-02-15T15:12:56;17.00;68.20
74809;DHT22;63338;39.544;2.596;2023-02-15T15:18:08;16.90;68.00
74809;DHT22;63338;39.544;2.596;2023-02-15T15:20:39;17.00;67.70
74809;DHT22;63338;39.544;2.596;2023-02-15T15:23:40;17.00;68.40
74809;DHT22;63338;39.544;2.596;2023-02-15T15:26:26;16.80;68.00
74809;DHT22;63338;39.544;2.596;2023-02-15T15:28:55;16.70;68.50
74809;DHT22;63338;39.544;2.596;2023-02-15T15:31:50;16.60;68.80
74809;DHT22;63338;39.544;2.596;2023-02-15T15:37:29;16.40;69.80
74809;DHT22;63338;39.544;2.596;2023-02-15T15:48:54;16.10;71.10
74809;DHT22;63338;39.544;2.596;2023-02-15T15:51:30;16.10;71.40
74809;DHT22;63338;39.544;2.596;2023-02-15T15:53:57;16.20;71.50
74809;DHT22;63338;39.544;2.596;2023-02-15T15:56:29;16.10;71.50
74809;DHT22;63338;39.544;2.596;2023-02-15T15:59:00;16.00;71.40
74809;DHT22;63338;39.544;2.596;2023-02-15T16:01:35;16.00;71.70
74809;DHT22;63338;39.544;2.596;2023-02-15T16:04:04;15.90;71.90
74809;DHT22;63338;39.544;2.596;2023-02-15T16:06:37;15.90;72.20
74809;DHT22;63338;39.544;2.596;2023-02-15T16:09:24;15.80;72.40
74809;DHT22;63338;39.544;2.596;2023-02-15T16:11:53;15.80;72.50
74809;DHT22;63338;39.544;2.596;2023-02-15T16:16:55;15.80;72.60
74809;DHT22;63338;39.544;2.596;2023-02-15T16:19:28;15.70;73.00
74809;DHT22;63338;39.544;2.596;2023-02-15T16:21:58;15.70;73.10
74809;DHT22;63338;39.544;2.596;2023-02-15T16:29:44;15.90;72.90
74809;DHT22;63338;39.544;2.596;2023-02-15T16:32:20;15.80;72.70
74809;DHT22;63338;39.544;2.596;2023-02-15T16:35:01;16.00;73.00
74809;DHT22;63338;39.544;2.596;2023-02-15T16:37:33;15.90;72.70
74809;DHT22;63338;39.544;2.596;2023-02-15T16:40:00;15.90;73.00
74809;DHT22;63338;39.544;2.596;2023-02-15T16:42:29;15.80;73.00
74809;DHT22;63338;39.544;2.596;2023-02-15T16:45:02;15.80;73.30
74809;DHT22;63338;39.544;2.596;2023-02-15T16:47:34;15.70;73.20
74809;DHT22;63338;39.544;2.596;2023-02-15T16:50:37;15.70;73.30
74809;DHT22;63338;39.544;2.596;2023-02-15T16:53:13;15.70;73.30
74809;DHT22;63338;39.544;2.596;2023-02-15T16:55:41;15.70;73.40
74809;DHT22;63338;39.544;2.596;2023-02-15T16:58:15;15.70;73.50
74809;DHT22;63338;39.544;2.596;2023-02-15T17:00:46;15.70;73.60
74809;DHT22;63338;39.544;2.596;2023-02-15T17:05:49;15.60;73.80
74809;DHT22;63338;39.544;2.596;2023-02-15T17:08:42;15.50;73.80
74809;DHT22;63338;39.544;2.596;2023-02-15T17:11:21;15.50;73.90
74809;DHT22;63338;39.544;2.596;2023-02-15T17:16:53;15.40;74.20
74809;DHT22;63338;39.544;2.596;2023-02-15T17:21:55;15.50;74.20
74809;DHT22;63338;39.544;2.596;2023-02-15T17:24:35;15.40;75.70
74809;DHT22;63338;39.544;2.596;2023-02-15T17:29:50;15.30;76.00
74809;DHT22;63338;39.544;2.596;2023-02-15T17:32:29;15.30;75.90
74809;DHT22;63338;39.544;2.596;2023-02-15T17:40:21;15.10;76.50
74809;DHT22;63338;39.544;2.596;2023-02-15T17:42:48;15.00;76.60
74809;DHT22;63338;39.544;2.596;2023-02-15T17:45:15;15.00;76.60
74809;DHT22;63338;39.544;2.596;2023-02-15T17:47:42;15.00;76.80
74809;DHT22;63338;39.544;2.596;2023-02-15T17:50:16;14.90;76.90
74809;DHT22;63338;39.544;2.596;2023-02-15T17:52:43;14.90;77.00
74809;DHT22;63338;39.544;2.596;2023-02-15T17:55:14;14.90;76.90
74809;DHT22;63338;39.544;2.596;2023-02-15T17:58:02;14.80;77.10
74809;DHT22;63338;39.544;2.596;2023-02-15T18:00:30;14.70;77.20
74809;DHT22;63338;39.544;2.596;2023-02-15T18:03:15;14.70;77.30
74809;DHT22;63338;39.544;2.596;2023-02-15T18:06:00;14.60;77.40
74809;DHT22;63338;39.544;2.596;2023-02-15T18:08:44;14.60;77.40
74809;DHT22;63338;39.544;2.596;2023-02-15T18:11:32;14.60;77.30
74809;DHT22;63338;39.544;2.596;2023-02-15T18:13:59;14.60;77.60
74809;DHT22;63338;39.544;2.596;2023-02-15T18:16:39;14.60;77.60
74809;DHT22;63338;39.544;2.596;2023-02-15T18:19:23;14.50;77.70
74809;DHT22;63338;39.544;2.596;2023-02-15T18:21:50;14.50;77.60
74809;DHT22;63338;39.544;2.596;2023-02-15T18:24:24;14.40;77.80
74809;DHT22;63338;39.544;2.596;2023-02-15T18:26:52;14.40;77.60
74809;DHT22;63338;39.544;2.596;2023-02-15T18:29:19;14.50;77.80
74809;DHT22;63338;39.544;2.596;2023-02-15T18:31:48;14.50;77.80
74809;DHT22;63338;39.544;2.596;2023-02-15T18:34:20;14.40;77.90
74809;DHT22;63338;39.544;2.596;2023-02-15T18:36:47;14.40;77.60
74809;DHT22;63338;39.544;2.596;2023-02-15T18:39:28;14.40;77.40
74809;DHT22;63338;39.544;2.596;2023-02-15T18:41:59;14.40;77.20
74809;DHT22;63338;39.544;2.596;2023-02-15T18:44:25;14.40;76.90
74809;DHT22;63338;39.544;2.596;2023-02-15T18:46:51;14.40;76.70
74809;DHT22;63338;39.544;2.596;2023-02-15T18:49:18;14.40;76.20
74809;DHT22;63338;39.544;2.596;2023-02-15T18:51:44;14.50;75.80
74809;DHT22;63338;39.544;2.596;2023-02-15T18:54:18;14.50;75.50
74809;DHT22;63338;39.544;2.596;2023-02-15T18:56:51;14.50;75.20
74809;DHT22;63338;39.544;2.596;2023-02-15T18:59:18;14.40;75.20
74809;DHT22;63338;39.544;2.596;2023-02-15T19:01:47;14.50;74.90
74809;DHT22;63338;39.544;2.596;2023-02-15T19:04:13;14.50;74.80
74809;DHT22;63338;39.544;2.596;2023-02-15T19:06:42;14.50;74.60
74809;DHT22;63338;39.544;2.596;2023-02-15T19:09:17;14.50;74.70
74809;DHT22;63338;39.544;2.596;2023-02-15T19:11:50;14.60;74.60
74809;DHT22;63338;39.544;2.596;2023-02-15T19:14:28;14.60;74.70
74809;DHT22;63338;39.544;2.596;2023-02-15T19:16:56;14.60;74.40